createdAt,value
2018-04-23T00:04:17.115Z,100750
2018-04-23T00:09:08.627Z,100748
2018-04-23T00:14:00.869Z,100743
2018-04-23T00:18:52.469Z,100722
2018-04-23T00:23:43.964Z,100678
2018-04-23T00:28:36.204Z,100654
2018-04-23T00:33:28.443Z,100644
2018-04-23T00:38:19.934Z,100647
2018-04-23T00:43:11.433Z,100650
2018-04-23T00:48:03.706Z,100657
2018-04-23T00:53:13.616Z,100654
2018-04-23T00:58:05.140Z,100666
2018-04-23T01:02:56.657Z,100655
2018-04-23T01:07:48.148Z,100655
2018-04-23T01:12:40.382Z,100655
2018-04-23T01:17:32.657Z,100658
2018-04-23T01:22:24.166Z,100665
2018-04-23T01:27:16.440Z,100688
2018-04-23T01:32:07.948Z,100695
2018-04-23T01:37:00.203Z,100703
2018-04-23T01:41:52.448Z,100701
2018-04-23T01:46:43.949Z,100702
2018-04-23T01:51:35.450Z,100705
2018-04-23T01:56:27.008Z,100710
2018-04-23T02:01:18.529Z,100735
2018-04-23T02:06:10.115Z,100742
2018-04-23T02:11:01.656Z,100738
2018-04-23T02:15:53.895Z,100737
2018-04-23T02:20:45.378Z,100740
2018-04-23T02:25:36.884Z,100735
2018-04-23T02:30:29.121Z,100733
2018-04-23T02:35:20.623Z,100739
2018-04-23T02:40:12.233Z,100742
2018-04-23T02:45:03.772Z,100751
2018-04-23T02:49:55.259Z,100765
2018-04-23T02:54:47.522Z,100766
2018-04-23T02:59:39.796Z,100762
2018-04-23T03:04:31.319Z,100770
2018-04-23T03:09:23.553Z,100775
2018-04-23T03:14:15.793Z,100775
2018-04-23T03:19:07.337Z,100774
2018-04-23T03:24:00.275Z,100784
2018-04-23T03:28:51.758Z,100775
2018-04-23T03:33:43.274Z,100776
2018-04-23T03:38:35.516Z,100781
2018-04-23T03:43:27.000Z,100768
2018-04-23T03:48:18.495Z,100785
2018-04-23T03:53:10.746Z,100782
2018-04-23T03:58:03.030Z,100775
2018-04-23T04:02:54.543Z,100780
2018-04-23T04:07:46.080Z,100763
2018-04-23T04:18:36.179Z,100770
2018-04-23T04:23:27.672Z,100764
2018-04-23T04:28:19.138Z,100780
2018-04-23T04:33:10.672Z,100786
2018-04-23T04:38:02.151Z,100792
2018-04-23T04:42:53.671Z,100786
2018-04-23T04:47:45.909Z,100789
2018-04-23T04:52:37.430Z,100800
2018-04-23T04:57:28.947Z,100816
2018-04-23T05:02:20.438Z,100822
2018-04-23T05:07:11.917Z,100817
2018-04-23T05:12:03.476Z,100823
2018-04-23T05:16:55.718Z,100838
2018-04-23T05:21:47.231Z,100839
2018-04-23T05:26:38.703Z,100837
2018-04-23T05:31:30.953Z,100838
2018-04-23T05:36:23.193Z,100843
2018-04-23T05:41:14.693Z,100850
2018-04-23T05:46:06.191Z,100843
2018-04-23T05:50:57.681Z,100852
2018-04-23T05:55:49.183Z,100854
2018-04-23T06:00:40.675Z,100860
2018-04-23T06:05:32.934Z,100856
2018-04-23T06:10:24.432Z,100866
2018-04-23T06:15:15.931Z,100871
2018-04-23T06:20:07.447Z,100879
2018-04-23T06:24:58.940Z,100892
2018-04-23T06:29:51.474Z,100897
2018-04-23T06:34:43.035Z,100895
2018-04-23T06:39:34.567Z,100902
2018-04-23T06:44:26.111Z,100904
2018-04-23T06:49:18.349Z,100903
2018-04-23T06:54:09.854Z,100902
2018-04-23T06:59:01.450Z,100896
2018-04-23T07:03:52.914Z,100906
2018-04-23T07:08:44.434Z,100918
2018-04-23T07:13:35.920Z,100918
2018-04-23T07:18:27.450Z,100915
2018-04-23T07:23:19.012Z,100914
2018-04-23T07:28:11.337Z,100899
2018-04-23T07:33:03.008Z,100897
2018-04-23T07:37:54.993Z,100912
2018-04-23T07:42:46.505Z,100905
2018-04-23T07:47:38.006Z,100915
2018-04-23T07:52:30.445Z,100909
2018-04-23T07:57:21.947Z,100919
2018-04-23T08:02:13.438Z,100922
2018-04-23T08:07:05.664Z,100929
2018-04-23T08:11:57.177Z,100935
2018-04-23T08:16:48.655Z,100931
2018-04-23T08:21:40.930Z,100933
2018-04-23T08:26:32.444Z,100933
2018-04-23T08:31:24.932Z,100937
2018-04-23T08:36:16.459Z,100948
2018-04-23T08:41:07.987Z,100955
2018-04-23T08:45:59.524Z,100949
2018-04-23T08:50:51.144Z,100946
2018-04-23T08:55:43.425Z,100959
2018-04-23T09:00:34.971Z,100968
2018-04-23T09:05:27.211Z,100976
2018-04-23T09:10:18.718Z,100980
2018-04-23T09:15:10.424Z,100987
2018-04-23T09:20:01.945Z,100979
2018-04-23T09:24:53.557Z,100973
2018-04-23T09:29:45.041Z,100985
2018-04-23T09:34:37.297Z,100996
2018-04-23T09:39:29.671Z,100996
2018-04-23T09:44:21.229Z,101004
2018-04-23T09:49:12.888Z,101004
2018-04-23T09:54:04.388Z,101007
2018-04-23T09:58:55.915Z,101019
2018-04-23T10:03:50.363Z,101015
2018-04-23T10:08:42.385Z,101015
2018-04-23T10:13:33.881Z,101015
2018-04-23T10:18:26.172Z,101016
2018-04-23T10:23:17.655Z,101018
2018-04-23T10:28:09.959Z,101023
2018-04-23T10:33:01.499Z,101028
2018-04-23T10:37:53.059Z,101024
2018-04-23T10:42:44.588Z,101022
2018-04-23T10:47:36.091Z,101025
2018-04-23T10:52:27.607Z,101026
2018-04-23T10:57:19.095Z,101024
2018-04-23T11:02:10.621Z,101024
2018-04-23T11:07:02.147Z,101014
2018-04-23T11:11:53.662Z,101020
2018-04-23T11:16:45.168Z,101023
2018-04-23T11:21:36.702Z,101025
2018-04-23T11:26:28.213Z,101021
2018-04-23T11:31:20.488Z,101025
2018-04-23T11:36:11.972Z,101035
2018-04-23T11:41:03.502Z,101042
2018-04-23T11:45:56.105Z,101040
2018-04-23T11:50:47.620Z,101040
2018-04-23T11:55:39.856Z,101046
2018-04-23T12:00:31.376Z,101039
2018-04-23T12:05:22.868Z,101030
2018-04-23T12:10:14.374Z,101035
2018-04-23T12:15:06.624Z,101019
2018-04-23T12:19:58.844Z,101013
2018-04-23T12:24:50.356Z,101024
2018-04-23T12:29:41.838Z,101029
2018-04-23T12:34:34.163Z,101029
2018-04-23T12:39:25.781Z,101025
2018-04-23T12:44:17.533Z,101022
2018-04-23T12:49:09.770Z,101022
2018-04-23T12:54:02.052Z,101009
2018-04-23T12:58:53.577Z,101012
2018-04-23T13:03:45.079Z,101007
2018-04-23T13:08:36.581Z,100997
2018-04-23T13:13:28.852Z,100999
2018-04-23T13:18:20.423Z,101003
2018-04-23T13:23:11.992Z,101002
2018-04-23T13:28:04.325Z,100993
2018-04-23T13:32:55.845Z,101005
2018-04-23T13:37:47.487Z,100988
2018-04-23T13:42:38.998Z,100982
2018-04-23T13:47:30.476Z,100985
2018-04-23T13:52:22.759Z,100970
2018-04-23T13:57:14.297Z,100963
2018-04-23T14:02:05.800Z,100969
2018-04-23T14:06:58.109Z,100966
2018-04-23T14:11:49.582Z,100960
2018-04-23T14:16:41.856Z,100953
2018-04-23T14:21:33.366Z,100936
2018-04-23T14:26:25.733Z,100954
2018-04-23T14:31:18.085Z,100954
2018-04-23T14:36:10.353Z,100957
2018-04-23T14:41:01.868Z,100952
2018-04-23T14:45:54.099Z,100960
2018-04-23T14:50:45.602Z,100965
2018-04-23T14:55:37.109Z,100958
2018-04-23T15:00:28.645Z,100957
2018-04-23T15:05:20.179Z,100964
2018-04-23T15:10:11.685Z,100973
2018-04-23T15:15:03.925Z,100978
2018-04-23T15:19:55.438Z,100981
2018-04-23T15:24:46.924Z,100979
2018-04-23T15:29:38.486Z,100983
2018-04-23T15:34:29.967Z,100979
2018-04-23T15:39:22.377Z,100989
2018-04-23T15:44:13.890Z,100988
2018-04-23T15:49:05.356Z,100984
2018-04-23T15:53:56.914Z,100991
2018-04-23T15:58:49.149Z,100992
2018-04-23T16:03:40.660Z,100997
2018-04-23T16:08:32.187Z,101000
2018-04-23T16:13:23.736Z,101002
2018-04-23T16:18:15.265Z,100997
2018-04-23T16:23:06.787Z,101002
2018-04-23T16:27:58.321Z,101006
2018-04-23T16:32:49.831Z,101008
2018-04-23T16:37:41.312Z,101013
2018-04-23T16:42:32.839Z,101014
2018-04-23T16:47:24.332Z,101015
2018-04-23T16:52:15.834Z,101021
2018-04-23T16:57:07.327Z,101015
2018-04-23T17:01:58.816Z,101016
2018-04-23T17:06:51.090Z,101008
2018-04-23T17:11:42.602Z,101013
2018-04-23T17:16:34.911Z,101013
2018-04-23T17:21:26.451Z,101012
2018-04-23T17:26:17.990Z,101015
2018-04-23T17:31:09.500Z,101023
2018-04-23T17:36:01.027Z,101031
2018-04-23T17:40:52.527Z,101027
2018-04-23T17:45:44.823Z,101029
2018-04-23T17:50:36.342Z,101029
2018-04-23T17:55:27.877Z,101031
2018-04-23T18:00:19.397Z,101039
2018-04-23T18:05:10.906Z,101046
2018-04-23T18:10:03.221Z,101046
2018-04-23T18:14:54.695Z,101042
2018-04-23T18:19:46.973Z,101051
2018-04-23T18:24:38.491Z,101046
2018-04-23T18:29:30.727Z,101051
2018-04-23T18:34:22.994Z,101046
2018-04-23T18:39:14.519Z,101051
2018-04-23T18:44:07.627Z,101048
2018-04-23T18:48:59.122Z,101052
2018-04-23T18:53:51.379Z,101058
2018-04-23T18:58:43.683Z,101066
2018-04-23T19:03:35.161Z,101074
2018-04-23T19:08:27.464Z,101083
2018-04-23T19:13:18.949Z,101084
2018-04-23T19:18:11.194Z,101081
2018-04-23T19:23:03.445Z,101093
2018-04-23T19:27:55.679Z,101102
2018-04-23T19:32:47.199Z,101108
2018-04-23T19:37:38.707Z,101114
2018-04-23T19:42:30.204Z,101119
2018-04-23T19:47:22.468Z,101123
2018-04-23T19:52:13.983Z,101136
2018-04-23T19:57:06.224Z,101139
2018-04-23T20:01:58.507Z,101144
2018-04-23T20:06:50.027Z,101146
2018-04-23T20:11:41.539Z,101147
2018-04-23T20:16:33.150Z,101141
2018-04-23T20:21:24.738Z,101144
2018-04-23T20:26:16.193Z,101148
2018-04-23T20:31:07.663Z,101148
2018-04-23T20:35:59.181Z,101145
2018-04-23T20:40:50.676Z,101144
2018-04-23T20:45:42.193Z,101150
2018-04-23T20:50:34.510Z,101148
2018-04-23T20:55:26.031Z,101152
2018-04-23T21:00:17.571Z,101163
2018-04-23T21:05:09.077Z,101165
2018-04-23T21:10:00.596Z,101175
2018-04-23T21:14:52.116Z,101177
2018-04-23T21:19:44.369Z,101174
2018-04-23T21:24:36.618Z,101171
2018-04-23T21:29:28.874Z,101178
2018-04-23T21:34:21.109Z,101178
2018-04-23T21:39:13.448Z,101181
2018-04-23T21:44:04.983Z,101181
2018-04-23T21:48:57.255Z,101177
2018-04-23T21:53:49.566Z,101175
2018-04-23T21:58:41.073Z,101182
2018-04-23T22:03:33.491Z,101186
2018-04-23T22:08:25.765Z,101193
2018-04-23T22:13:17.277Z,101202
2018-04-23T22:18:09.556Z,101207
2018-04-23T22:23:01.783Z,101211
2018-04-23T22:27:53.995Z,101215
2018-04-23T22:32:45.550Z,101213
2018-04-23T22:37:37.829Z,101208
2018-04-23T22:42:29.380Z,101206
2018-04-23T22:47:20.880Z,101212
2018-04-23T22:52:13.214Z,101217
2018-04-23T22:57:04.686Z,101221
2018-04-23T23:01:56.176Z,101224
2018-04-23T23:06:47.685Z,101230
2018-04-23T23:11:40.049Z,101233
2018-04-23T23:16:31.573Z,101244
2018-04-23T23:21:23.091Z,101247
2018-04-23T23:26:14.578Z,101254
2018-04-23T23:31:06.092Z,101252
2018-04-23T23:35:57.587Z,101258
2018-04-23T23:40:49.103Z,101256
2018-04-23T23:45:40.650Z,101247
2018-04-23T23:50:32.187Z,101248
2018-04-23T23:55:23.675Z,101253
